createdAt,value
2019-05-30T00:00:57.965Z,9.10
2019-05-30T00:04:05.766Z,9.80
2019-05-30T00:07:13.444Z,11.20
2019-05-30T00:10:20.890Z,12.10
2019-05-30T00:13:28.409Z,12.87
2019-05-30T00:16:37.564Z,14.30
2019-05-30T00:19:45.018Z,18.90
2019-05-30T00:22:52.462Z,18.27
2019-05-30T00:26:01.262Z,19.20
2019-05-30T00:29:10.086Z,16.83
2019-05-30T00:32:17.706Z,16.73
2019-05-30T00:35:25.187Z,16.13
2019-05-30T00:38:32.755Z,14.40
2019-05-30T00:41:40.327Z,13.93
2019-05-30T00:44:47.881Z,12.07
2019-05-30T00:47:55.945Z,9.33
2019-05-30T00:51:04.398Z,8.13
2019-05-30T00:54:12.325Z,8.43
2019-05-30T00:57:19.772Z,7.63
2019-05-30T01:00:42.019Z,8.83
2019-05-30T01:03:36.341Z,7.47
2019-05-30T01:06:43.928Z,6.93
2019-05-30T01:09:51.348Z,7.23
2019-05-30T01:12:59.923Z,7.10
2019-05-30T01:16:07.928Z,6.90
2019-05-30T01:19:15.436Z,6.80
2019-05-30T01:22:22.922Z,7.63
2019-05-30T01:25:30.391Z,7.70
2019-05-30T01:28:37.830Z,7.40
2019-05-30T01:31:45.265Z,7.80
2019-05-30T01:34:52.707Z,7.23
2019-05-30T01:38:00.139Z,8.07
2019-05-30T01:41:08.780Z,7.93
2019-05-30T01:44:16.223Z,6.87
2019-05-30T01:47:23.807Z,8.00
2019-05-30T01:50:31.245Z,8.70
2019-05-30T01:53:38.680Z,8.53
2019-05-30T01:56:46.129Z,8.20
2019-05-30T01:59:53.601Z,8.07
2019-05-30T02:03:01.064Z,8.27
2019-05-30T02:06:09.392Z,8.73
2019-05-30T02:09:16.907Z,8.70
2019-05-30T02:12:24.456Z,9.03
2019-05-30T02:15:31.926Z,9.00
2019-05-30T02:18:39.410Z,9.10
2019-05-30T02:21:46.836Z,9.67
2019-05-30T02:24:54.270Z,8.70
2019-05-30T02:28:02.057Z,9.00
2019-05-30T02:31:11.667Z,8.90
2019-05-30T02:34:18.753Z,9.80
2019-05-30T02:37:26.196Z,9.90
2019-05-30T02:40:33.804Z,10.30
2019-05-30T02:43:41.234Z,9.97
2019-05-30T02:46:48.685Z,10.40
2019-05-30T02:49:56.152Z,10.07
2019-05-30T02:53:03.738Z,10.83
2019-05-30T02:56:12.683Z,11.33
2019-05-30T02:59:20.298Z,10.90
2019-05-30T03:02:27.736Z,9.73
2019-05-30T03:05:35.346Z,10.20
2019-05-30T03:08:42.983Z,10.93
2019-05-30T03:11:50.404Z,10.30
2019-05-30T03:14:57.898Z,10.57
2019-05-30T03:18:08.030Z,10.90
2019-05-30T03:21:15.663Z,11.33
2019-05-30T03:24:23.457Z,12.27
2019-05-30T03:27:30.916Z,12.10
2019-05-30T03:30:38.354Z,10.40
2019-05-30T03:33:46.162Z,9.67
2019-05-30T03:36:53.586Z,10.40
2019-05-30T03:40:01.126Z,9.07
2019-05-30T03:43:10.756Z,8.63
2019-05-30T03:46:22.093Z,8.43
2019-05-30T03:49:32.467Z,8.67
2019-05-30T03:52:40.104Z,8.73
2019-05-30T03:55:51.813Z,7.67
2019-05-30T03:59:19.855Z,7.80
2019-05-30T04:02:57.967Z,6.40
2019-05-30T04:06:07.223Z,7.00
2019-05-30T04:09:22.499Z,6.20
2019-05-30T04:12:56.274Z,5.80
2019-05-30T04:16:03.716Z,6.80
2019-05-30T04:19:12.546Z,6.03
2019-05-30T04:22:20.330Z,5.60
2019-05-30T04:25:27.728Z,5.07
2019-05-30T04:28:35.167Z,5.97
2019-05-30T04:31:42.618Z,4.83
2019-05-30T04:34:50.095Z,5.27
2019-05-30T04:37:57.526Z,5.43
2019-05-30T04:41:04.989Z,5.23
2019-05-30T04:44:14.489Z,7.40
2019-05-30T04:47:22.513Z,5.23
2019-05-30T04:50:30.254Z,6.30
2019-05-30T04:53:37.702Z,5.97
2019-05-30T04:56:45.203Z,6.10
2019-05-30T04:59:52.619Z,6.37
2019-05-30T05:03:00.139Z,7.20
2019-05-30T05:06:08.193Z,6.80
2019-05-30T05:09:16.100Z,6.37
2019-05-30T05:12:23.871Z,6.43
2019-05-30T05:15:31.335Z,7.03
2019-05-30T05:18:38.839Z,6.50
2019-05-30T05:21:46.272Z,6.70
2019-05-30T05:24:53.791Z,7.70
2019-05-30T05:28:01.231Z,7.17
2019-05-30T05:31:08.766Z,6.40
2019-05-30T05:34:16.586Z,5.80
2019-05-30T05:37:25.340Z,5.97
2019-05-30T05:40:32.954Z,5.87
2019-05-30T05:43:40.411Z,6.77
2019-05-30T05:46:47.824Z,5.70
2019-05-30T05:49:55.466Z,6.27
2019-05-30T05:53:02.982Z,5.00
2019-05-30T05:56:10.384Z,5.90
2019-05-30T05:59:18.902Z,6.20
2019-05-30T06:02:27.230Z,6.27
2019-05-30T06:05:34.754Z,4.70
2019-05-30T06:08:42.163Z,4.20
2019-05-30T06:11:49.618Z,4.20
2019-05-30T06:14:57.123Z,4.67
2019-05-30T06:18:04.580Z,4.20
2019-05-30T06:21:12.041Z,10.13
2019-05-30T06:24:19.657Z,3.93
2019-05-30T06:27:28.076Z,3.33
2019-05-30T06:30:35.685Z,2.77
2019-05-30T06:33:43.269Z,3.80
2019-05-30T06:36:50.713Z,2.73
2019-05-30T06:39:58.175Z,3.87
2019-05-30T06:43:07.003Z,2.87
2019-05-30T06:46:14.562Z,2.73
2019-05-30T06:49:22.779Z,2.53
2019-05-30T06:52:32.095Z,2.80
2019-05-30T06:55:39.416Z,3.27
2019-05-30T06:58:49.051Z,3.73
2019-05-30T07:01:55.914Z,3.27
2019-05-30T07:05:04.056Z,3.97
2019-05-30T07:08:11.781Z,2.77
2019-05-30T07:11:19.214Z,3.00
2019-05-30T07:14:27.249Z,2.70
2019-05-30T07:17:34.746Z,2.43
2019-05-30T07:20:42.199Z,2.60
2019-05-30T07:23:49.651Z,2.40
2019-05-30T07:26:57.157Z,2.70
2019-05-30T07:30:05.199Z,1.87
2019-05-30T07:33:12.694Z,1.80
2019-05-30T07:36:20.170Z,2.53
2019-05-30T07:39:32.777Z,2.70
2019-05-30T07:42:36.930Z,2.80
2019-05-30T07:45:51.726Z,3.33
2019-05-30T07:48:53.882Z,17.27
2019-05-30T07:52:01.412Z,3.67
2019-05-30T07:55:10.103Z,3.53
2019-05-30T07:58:17.502Z,3.90
2019-05-30T08:01:26.252Z,2.10
2019-05-30T08:04:34.168Z,3.37
2019-05-30T08:07:41.812Z,3.67
2019-05-30T08:10:49.264Z,3.40
2019-05-30T08:13:56.736Z,2.27
2019-05-30T08:17:04.226Z,2.80
2019-05-30T08:20:12.575Z,72.00
2019-05-30T08:23:20.044Z,2.50
2019-05-30T08:26:28.081Z,2.57
2019-05-30T08:29:36.432Z,2.67
2019-05-30T08:32:44.146Z,3.13
2019-05-30T08:35:51.576Z,2.57
2019-05-30T08:39:00.266Z,2.70
2019-05-30T08:42:07.746Z,2.47
2019-05-30T08:45:15.933Z,2.07
2019-05-30T08:48:23.400Z,2.07
2019-05-30T08:51:31.871Z,1.97
2019-05-30T08:54:40.555Z,1.90
2019-05-30T08:57:48.070Z,2.30
2019-05-30T09:00:55.478Z,1.57
2019-05-30T09:04:02.969Z,2.07
2019-05-30T09:07:12.794Z,2.30
2019-05-30T09:10:20.767Z,1.87
2019-05-30T09:13:28.238Z,1.90
2019-05-30T09:16:35.786Z,1.90
2019-05-30T09:19:43.305Z,1.93
2019-05-30T09:22:51.803Z,1.83
2019-05-30T09:25:59.256Z,2.10
2019-05-30T09:29:06.752Z,1.93
2019-05-30T09:32:14.674Z,2.10
2019-05-30T09:35:23.294Z,1.93
2019-05-30T09:38:30.710Z,2.00
2019-05-30T09:41:39.352Z,2.50
2019-05-30T09:44:50.471Z,2.10
2019-05-30T09:47:56.315Z,2.87
2019-05-30T09:51:03.732Z,2.50
2019-05-30T09:54:11.178Z,2.70
2019-05-30T09:57:19.040Z,2.57
2019-05-30T10:00:27.030Z,2.73
2019-05-30T10:03:34.749Z,2.90
2019-05-30T10:06:44.672Z,3.03
2019-05-30T10:09:53.115Z,2.30
2019-05-30T10:13:00.755Z,2.80
2019-05-30T10:16:08.219Z,2.23
2019-05-30T10:19:15.681Z,2.70
2019-05-30T10:22:23.176Z,2.60
2019-05-30T10:25:30.725Z,2.30
2019-05-30T10:28:38.172Z,3.70
2019-05-30T10:31:46.488Z,2.50
2019-05-30T10:34:54.076Z,2.67
2019-05-30T10:38:01.652Z,2.10
2019-05-30T10:41:09.079Z,3.00
2019-05-30T10:44:16.546Z,2.37
2019-05-30T10:47:23.984Z,2.40
2019-05-30T10:50:31.421Z,3.03
2019-05-30T10:53:38.879Z,2.40
2019-05-30T10:56:47.067Z,2.23
2019-05-30T10:59:55.347Z,1.97
2019-05-30T11:03:03.207Z,1.80
2019-05-30T11:06:42.216Z,2.37
2019-05-30T11:09:55.164Z,1.67
2019-05-30T11:16:11.876Z,1.50
2019-05-30T11:19:19.289Z,1.90
2019-05-30T11:22:26.840Z,2.57
2019-05-30T11:25:35.585Z,2.27
2019-05-30T11:28:43.119Z,2.40
2019-05-30T11:31:50.781Z,2.10
2019-05-30T11:34:59.579Z,2.07
2019-05-30T11:38:07.197Z,1.90
2019-05-30T11:41:14.626Z,2.27
2019-05-30T11:44:22.081Z,2.03
2019-05-30T11:47:29.548Z,1.80
2019-05-30T11:50:37.041Z,1.87
2019-05-30T11:53:44.443Z,1.87
2019-05-30T11:56:52.066Z,2.10
2019-05-30T12:00:00.518Z,1.37
2019-05-30T12:03:11.407Z,1.83
2019-05-30T12:06:18.852Z,1.83
2019-05-30T12:09:26.368Z,2.30
2019-05-30T12:12:33.795Z,1.90
2019-05-30T12:15:41.312Z,2.60
2019-05-30T12:18:49.700Z,2.20
2019-05-30T12:21:57.704Z,2.27
2019-05-30T12:25:05.387Z,2.40
2019-05-30T12:28:12.919Z,1.80
2019-05-30T12:31:20.450Z,1.47
2019-05-30T12:34:27.976Z,2.00
2019-05-30T12:37:50.273Z,2.43
2019-05-30T12:40:44.572Z,2.77
2019-05-30T12:43:53.015Z,1.37
2019-05-30T12:47:01.672Z,2.07
2019-05-30T12:50:10.196Z,3.07
2019-05-30T12:53:17.607Z,3.10
2019-05-30T12:56:26.643Z,3.00
2019-05-30T12:59:34.090Z,4.70
2019-05-30T13:02:41.817Z,4.27
2019-05-30T13:05:49.309Z,3.83
2019-05-30T13:08:57.024Z,2.93
2019-05-30T13:12:04.468Z,3.10
2019-05-30T13:15:12.237Z,2.37
2019-05-30T13:18:19.687Z,2.70
2019-05-30T13:21:27.183Z,3.47
2019-05-30T13:24:34.739Z,3.43
2019-05-30T13:27:42.174Z,17.03
2019-05-30T13:30:49.823Z,3.43
2019-05-30T13:33:58.402Z,2.27
2019-05-30T13:37:07.897Z,3.17
2019-05-30T13:40:24.819Z,4.87
2019-05-30T13:43:27.773Z,4.10
2019-05-30T13:46:33.882Z,2.33
2019-05-30T13:49:41.397Z,2.27
2019-05-30T13:52:49.223Z,2.83
2019-05-30T13:55:56.733Z,2.87
2019-05-30T13:59:04.172Z,2.57
2019-05-30T14:02:11.609Z,2.03
2019-05-30T14:05:19.292Z,1.80
2019-05-30T14:08:40.785Z,2.10
2019-05-30T14:11:37.258Z,2.60
2019-05-30T14:14:44.793Z,2.60
2019-05-30T14:17:52.220Z,3.10
2019-05-30T14:21:01.680Z,4.33
2019-05-30T14:24:09.473Z,3.20
2019-05-30T14:27:16.988Z,2.50
2019-05-30T14:30:24.760Z,5.27
2019-05-30T14:33:32.259Z,4.70
2019-05-30T14:36:40.699Z,3.57
2019-05-30T14:39:48.208Z,3.80
2019-05-30T14:42:56.043Z,5.27
2019-05-30T14:46:04.313Z,4.30
2019-05-30T14:49:12.757Z,5.60
2019-05-30T14:52:20.321Z,5.40
2019-05-30T14:55:27.867Z,7.70
2019-05-30T14:58:35.360Z,7.27
2019-05-30T15:01:43.129Z,6.60
2019-05-30T15:04:50.740Z,8.67
2019-05-30T15:07:58.289Z,9.90
2019-05-30T15:11:05.926Z,9.23
2019-05-30T15:14:13.665Z,7.63
2019-05-30T15:17:21.239Z,9.83
2019-05-30T15:20:28.781Z,9.90
2019-05-30T15:23:36.535Z,13.07
2019-05-30T15:26:44.086Z,10.20
2019-05-30T15:29:51.586Z,13.60
2019-05-30T15:32:59.353Z,12.97
2019-05-30T15:36:08.577Z,8.47
2019-05-30T15:39:31.566Z,8.53
2019-05-30T15:42:26.653Z,9.77
2019-05-30T15:45:34.184Z,9.90
2019-05-30T15:48:41.730Z,10.27
2019-05-30T15:51:49.192Z,9.50
2019-05-30T15:54:56.628Z,11.30
2019-05-30T15:58:04.157Z,11.13
2019-05-30T16:01:11.861Z,11.40
2019-05-30T16:04:20.463Z,12.37
2019-05-30T16:07:28.188Z,11.77
2019-05-30T16:10:37.068Z,14.00
2019-05-30T16:13:45.705Z,14.18
2019-05-30T16:16:53.258Z,12.80
2019-05-30T16:20:00.758Z,16.07
2019-05-30T16:23:08.366Z,21.10
2019-05-30T16:26:15.989Z,12.43
2019-05-30T16:29:23.541Z,11.60
2019-05-30T16:32:31.107Z,13.40
2019-05-30T16:35:38.563Z,15.47
2019-05-30T16:38:46.210Z,16.77
2019-05-30T16:41:53.727Z,21.43
2019-05-30T16:45:01.285Z,21.77
2019-05-30T16:48:09.428Z,16.00
2019-05-30T16:51:16.918Z,13.97
2019-05-30T16:54:25.456Z,15.47
2019-05-30T16:57:32.966Z,15.60
2019-05-30T17:00:40.513Z,17.50
2019-05-30T17:03:49.522Z,19.27
2019-05-30T17:06:57.074Z,24.60
2019-05-30T17:10:20.900Z,18.37
2019-05-30T17:13:13.997Z,20.20
2019-05-30T17:16:22.074Z,19.07
2019-05-30T17:19:29.707Z,19.33
2019-05-30T17:22:37.202Z,19.10
2019-05-30T17:25:44.653Z,19.07
2019-05-30T17:28:52.240Z,24.17
2019-05-30T17:31:59.712Z,22.70
2019-05-30T17:35:08.057Z,29.40
2019-05-30T17:38:15.580Z,28.17
2019-05-30T17:41:24.834Z,33.90
2019-05-30T17:44:32.409Z,32.00
2019-05-30T17:47:40.057Z,33.80
2019-05-30T17:50:49.003Z,35.70
2019-05-30T17:53:56.455Z,32.97
2019-05-30T17:57:03.928Z,30.77
2019-05-30T18:00:12.026Z,32.90
2019-05-30T18:03:20.347Z,24.87
2019-05-30T18:06:28.620Z,22.80
2019-05-30T18:09:36.325Z,20.97
2019-05-30T18:12:44.404Z,19.53
2019-05-30T18:15:51.934Z,21.80
2019-05-30T18:18:59.452Z,21.23
2019-05-30T18:22:07.141Z,22.70
2019-05-30T18:25:15.244Z,22.50
2019-05-30T18:28:25.685Z,24.67
2019-05-30T18:31:33.306Z,27.30
2019-05-30T18:34:41.357Z,24.87
2019-05-30T18:37:48.978Z,25.77
2019-05-30T18:41:10.853Z,25.70
2019-05-30T18:44:07.044Z,28.70
2019-05-30T18:47:14.542Z,24.40
2019-05-30T18:50:23.091Z,25.73
2019-05-30T18:53:30.677Z,24.63
2019-05-30T18:56:38.176Z,26.40
2019-05-30T18:59:46.204Z,26.10
2019-05-30T19:02:54.761Z,28.47
2019-05-30T19:06:02.360Z,22.60
2019-05-30T19:09:10.074Z,25.77
2019-05-30T19:12:17.728Z,25.27
2019-05-30T19:15:29.346Z,24.50
2019-05-30T19:18:35.715Z,26.33
2019-05-30T19:21:43.369Z,26.90
2019-05-30T19:24:50.850Z,24.97
2019-05-30T19:27:59.368Z,32.03
2019-05-30T19:31:06.940Z,27.50
2019-05-30T19:34:15.027Z,29.53
2019-05-30T19:37:22.498Z,30.50
2019-05-30T19:40:30.142Z,28.17
2019-05-30T19:43:38.970Z,29.57
2019-05-30T19:46:47.651Z,35.67
2019-05-30T19:49:55.124Z,28.80
2019-05-30T19:53:02.573Z,36.80
2019-05-30T19:56:10.018Z,26.47
2019-05-30T19:59:17.642Z,35.10
2019-05-30T20:02:25.147Z,36.30
2019-05-30T20:05:32.772Z,31.17
2019-05-30T20:08:52.493Z,33.47
2019-05-30T20:12:02.566Z,31.97
2019-05-30T20:14:58.486Z,30.20
2019-05-30T20:18:06.163Z,28.07
2019-05-30T20:21:13.757Z,35.03
2019-05-30T20:24:21.264Z,29.87
2019-05-30T20:27:28.783Z,28.90
2019-05-30T20:30:37.080Z,24.30
2019-05-30T20:33:46.851Z,24.20
2019-05-30T20:36:54.332Z,18.33
2019-05-30T20:40:01.833Z,19.30
2019-05-30T20:43:09.329Z,22.00
2019-05-30T20:46:23.166Z,26.67
2019-05-30T20:49:26.750Z,23.73
2019-05-30T20:52:37.073Z,20.73
2019-05-30T20:55:43.344Z,18.90
2019-05-30T20:58:50.915Z,17.40
2019-05-30T21:01:58.692Z,18.77
2019-05-30T21:05:07.256Z,18.50
2019-05-30T21:08:16.102Z,20.23
2019-05-30T21:11:24.576Z,19.70
2019-05-30T21:14:35.482Z,19.07
2019-05-30T21:17:46.086Z,19.47
2019-05-30T21:20:53.886Z,19.20
2019-05-30T21:24:01.378Z,18.23
2019-05-30T21:27:09.000Z,20.73
2019-05-30T21:30:16.538Z,19.20
2019-05-30T21:33:23.986Z,21.43
2019-05-30T21:36:31.426Z,22.63
2019-05-30T21:39:40.004Z,25.03
2019-05-30T21:43:04.240Z,25.47
2019-05-30T21:45:56.726Z,23.90
2019-05-30T21:49:04.658Z,27.13
2019-05-30T21:52:12.226Z,30.07
2019-05-30T21:55:19.810Z,33.27
2019-05-30T21:58:27.234Z,29.87
2019-05-30T22:01:40.638Z,30.93
2019-05-30T22:04:48.694Z,30.57
2019-05-30T22:07:56.296Z,27.10
2019-05-30T22:11:03.835Z,23.80
2019-05-30T22:14:11.510Z,24.63
2019-05-30T22:17:19.056Z,23.00
2019-05-30T22:20:26.571Z,23.90
2019-05-30T22:23:34.096Z,22.00
2019-05-30T22:26:42.439Z,20.97
2019-05-30T22:29:50.662Z,21.33
2019-05-30T22:32:58.244Z,22.37
2019-05-30T22:36:05.912Z,25.70
2019-05-30T22:39:13.452Z,27.00
2019-05-30T22:42:21.026Z,25.47
2019-05-30T22:45:28.532Z,27.93
2019-05-30T22:48:36.220Z,27.57
2019-05-30T22:51:44.869Z,29.47
2019-05-30T22:54:53.278Z,29.83
2019-05-30T22:58:01.970Z,27.13
2019-05-30T23:01:09.503Z,30.47
2019-05-30T23:04:16.952Z,31.03
2019-05-30T23:07:24.429Z,31.27
2019-05-30T23:10:31.873Z,27.97
2019-05-30T23:13:40.809Z,31.70
2019-05-30T23:16:50.206Z,31.63
2019-05-30T23:19:57.973Z,30.87
2019-05-30T23:23:05.480Z,32.00
2019-05-30T23:26:12.974Z,32.97
2019-05-30T23:29:20.541Z,34.40
2019-05-30T23:32:28.033Z,33.40
2019-05-30T23:35:35.483Z,36.13
2019-05-30T23:38:42.994Z,37.33
2019-05-30T23:41:51.053Z,32.00
2019-05-30T23:44:59.507Z,33.73
2019-05-30T23:48:07.092Z,30.87
2019-05-30T23:51:14.512Z,30.40
2019-05-30T23:54:21.994Z,28.30
2019-05-30T23:57:29.449Z,30.20
